| time (UTC) | temp F | wind direction | speed knots | gust knots | rain 1hr in | rain 24hr in | rain mn in | humidity % | barometer mb |
| 20260906161520 | 75 | 250 | 0.9 | 0.9 | 0.00 | 0.00 | 0.00 | 48 | 1024.5 |
| 20260906161019 | 75 | 174 | 0.9 | 0.9 | 0.00 | 0.00 | 0.00 | 47 | 1024.5 |
| 20260906160518 | 74 | 223 | 0.9 | 0.9 | 0.00 | 0.00 | 0.00 | 50 | 1024.6 |
| 20260906160017 | 75 | 217 | 0.9 | 1.7 | 0.00 | 0.00 | 0.00 | 50 | 1024.1 |
| 20260906155515 | 74 | 214 | 1.7 | 1.7 | 0.00 | 0.00 | 0.00 | 51 | 1024.1 |
| 20260906155011 | 74 | 222 | 0.0 | 0.9 | 0.00 | 0.00 | 0.00 | 51 | 1024.2 |
| 20260906154506 | 73 | 232 | 1.7 | 1.7 | 0.00 | 0.00 | 0.00 | 52 | 1024.3 |
| 20260906154004 | 73 | 230 | 0.9 | 1.7 | 0.00 | 0.00 | 0.00 | 53 | 1024.3 |
| 20260906153503 | 72 | 233 | 0.9 | 0.9 | 0.00 | 0.00 | 0.00 | 54 | 1024.3 |
| 20260906152959 | 71 | 221 | 0.9 | 0.9 | 0.00 | 0.00 | 0.00 | 55 | 1024.2 |
| 20260906152453 | 71 | 232 | 1.7 | 1.7 | 0.00 | 0.00 | 0.00 | 55 | 1024.5 |
| 20260906151953 | 70 | 229 | 0.9 | 0.9 | 0.00 | 0.00 | 0.00 | 57 | 1024.4 |
| 20260906151448 | 70 | 194 | 0.9 | 0.9 | 0.00 | 0.00 | 0.00 | 56 | 1024.5 |
| 20260906150944 | 70 | 229 | 0.9 | 1.7 | 0.00 | 0.00 | 0.00 | 55 | 1024.5 |
| 20260906150439 | 69 | 237 | 2.6 | 2.6 | 0.00 | 0.00 | 0.00 | 57 | 1024.5 |
| 20260906145938 | 69 | 228 | 2.6 | 2.6 | 0.00 | 0.00 | 0.00 | 57 | 1024.5 |
| 20260906145438 | 69 | 176 | 0.0 | 0.9 | 0.00 | 0.00 | 0.00 | 58 | 1024.4 |
| 20260906144933 | 68 | 231 | 0.9 | 0.9 | 0.00 | 0.00 | 0.00 | 61 | 1024.5 |
| 20260906144433 | 68 | 221 | 0.9 | 1.7 | 0.00 | 0.00 | 0.00 | 60 | 1024.4 |
| 20260906143929 | 68 | 229 | 2.6 | 2.6 | 0.00 | 0.00 | 0.00 | 61 | 1024.4 |
| 20260906143424 | 67 | 223 | 0.0 | 0.9 | 0.00 | 0.00 | 0.00 | 61 | 1024.6 |
| 20260906142920 | 67 | 167 | 1.7 | 1.7 | 0.00 | 0.00 | 0.00 | 62 | 1024.5 |
| 20260906142419 | 66 | 215 | 1.7 | 1.7 | 0.00 | 0.00 | 0.00 | 62 | 1024.7 |
| 20260906141914 | 66 | 218 | 0.9 | 1.7 | 0.00 | 0.00 | 0.00 | 63 | 1024.7 |
| 20260906141414 | 65 | 217 | 0.9 | 1.7 | 0.00 | 0.00 | 0.00 | 64 | 1024.7 |
| 20260906140909 | 65 | 207 | 0.0 | 0.9 | 0.00 | 0.00 | 0.00 | 67 | 1024.8 |
| 20260906140403 | 64 | 214 | 0.9 | 1.7 | 0.00 | 0.00 | 0.00 | 68 | 1024.9 |
| 20260906135901 | 64 | 219 | 0.0 | 0.0 | 0.00 | 0.00 | 0.00 | 69 | 1024.7 |
| 20260906135400 | 63 | 218 | 0.0 | 0.0 | 0.00 | 0.00 | 0.00 | 70 | 1024.7 |
| 20260906134856 | 63 | 220 | 0.0 | 0.0 | 0.00 | 0.00 | 0.00 | 70 | 1024.9 |
| 20260906134351 | 62 | 221 | 0.0 | 0.0 | 0.00 | 0.00 | 0.00 | 72 | 1024.7 |
| 20260906133846 | 62 | 221 | 0.0 | 0.0 | 0.00 | 0.00 | 0.00 | 73 | 1024.7 |
| 20260906133342 | 61 | 242 | 0.0 | 0.0 | 0.00 | 0.00 | 0.00 | 81 | 1024.8 |
| 20260906132837 | 61 | 17 | 0.0 | 0.0 | 0.00 | 0.00 | 0.00 | 84 | 1024.7 |
| 20260906132332 | 60 | 18 | 0.0 | 0.0 | 0.00 | 0.00 | 0.00 | 85 | 1024.6 |
| 20260906131828 | 60 | 18 | 0.0 | 0.0 | 0.00 | 0.00 | 0.00 | 85 | 1024.8 |
| 20260906131323 | 59 | 18 | 0.0 | 0.0 | 0.00 | 0.00 | 0.00 | 85 | 1024.7 |
| 20260906130819 | 59 | 18 | 0.0 | 0.0 | 0.00 | 0.00 | 0.00 | 85 | 1024.7 |
| 20260906130319 | 59 | 18 | 0.0 | 0.0 | 0.00 | 0.00 | 0.00 | 85 | 1024.8 |
| 20260906125818 | 59 | 18 | 0.0 | 0.0 | 0.00 | 0.00 | 0.00 | 85 | 1024.7 |
| 20260906125315 | 58 | 18 | 0.0 | 0.0 | 0.00 | 0.00 | 0.00 | 84 | 1024.6 |
| 20260906124810 | 58 | 18 | 0.0 | 0.0 | 0.00 | 0.00 | 0.00 | 84 | 1024.7 |
| 20260906124306 | 58 | 18 | 0.0 | 0.0 | 0.00 | 0.00 | 0.00 | 84 | 1024.6 |
| 20260906123805 | 58 | 18 | 0.0 | 0.0 | 0.00 | 0.00 | 0.00 | 84 | 1024.5 |
| 20260906123300 | 58 | 18 | 0.0 | 0.0 | 0.00 | 0.00 | 0.00 | 84 | 1024.5 |
| 20260906122800 | 58 | 18 | 0.0 | 0.0 | 0.00 | 0.00 | 0.00 | 83 | 1024.6 |
| 20260906122255 | 57 | 18 | 0.0 | 0.0 | 0.00 | 0.00 | 0.00 | 83 | 1024.6 |
| 20260906121752 | 57 | 18 | 0.0 | 0.0 | 0.00 | 0.00 | 0.00 | 83 | 1024.5 |
| 20260906121248 | 57 | 18 | 0.0 | 0.0 | 0.00 | 0.00 | 0.00 | 83 | 1024.4 |
| 20260906120743 | 57 | 18 | 0.0 | 0.0 | 0.00 | 0.00 | 0.00 | 83 | 1024.3 |
| 20260906120240 | 57 | 18 | 0.0 | 0.0 | 0.00 | 0.00 | 0.00 | 82 | 1024.3 |
| 20260906115735 | 57 | 18 | 0.0 | 0.0 | 0.00 | 0.00 | 0.00 | 82 | 1024.0 |
| 20260906115230 | 57 | 18 | 0.0 | 0.0 | 0.00 | 0.00 | 0.00 | 82 | 1024.0 |
| 20260906114729 | 57 | 18 | 0.0 | 0.0 | 0.00 | 0.00 | 0.00 | 82 | 1024.1 |
| 20260906114225 | 57 | 18 | 0.0 | 0.0 | 0.00 | 0.00 | 0.00 | 82 | 1024.0 |
| 20260906113720 | 57 | 18 | 0.0 | 0.0 | 0.00 | 0.00 | 0.00 | 82 | 1024.0 |
| 20260906113219 | 57 | 18 | 0.0 | 0.0 | 0.00 | 0.00 | 0.00 | 82 | 1024.0 |
| 20260906112719 | 57 | 18 | 0.0 | 0.0 | 0.00 | 0.00 | 0.00 | 82 | 1024.0 |
| 20260906112216 | 57 | 18 | 0.0 | 0.0 | 0.00 | 0.00 | 0.00 | 82 | 1024.1 |
| 20260906111715 | 57 | 18 | 0.0 | 0.0 | 0.00 | 0.00 | 0.00 | 82 | 1024.0 |
| 20260906111210 | 57 | 18 | 0.0 | 0.0 | 0.00 | 0.00 | 0.00 | 82 | 1024.0 |
| 20260906110704 | 57 | 18 | 0.0 | 0.0 | 0.00 | 0.00 | 0.00 | 82 | 1023.6 |
| 20260906110200 | 57 | 18 | 0.0 | 0.0 | 0.00 | 0.00 | 0.00 | 82 | 1023.9 |
| 20260906105654 | 58 | 18 | 0.0 | 0.0 | 0.00 | 0.00 | 0.00 | 82 | 1023.5 |
| 20260906105150 | 58 | 18 | 0.0 | 0.0 | 0.00 | 0.00 | 0.00 | 82 | 1023.6 |
| 20260906104649 | 58 | 18 | 0.0 | 0.0 | 0.00 | 0.00 | 0.00 | 82 | 1023.4 |
| 20260906104143 | 58 | 18 | 0.0 | 0.0 | 0.00 | 0.00 | 0.00 | 81 | 1023.4 |
| 20260906103641 | 58 | 18 | 0.0 | 0.0 | 0.00 | 0.00 | 0.00 | 81 | 1023.6 |
| 20260906103137 | 58 | 18 | 0.0 | 0.0 | 0.00 | 0.00 | 0.00 | 81 | 1023.5 |
| 20260906102632 | 59 | 18 | 0.0 | 0.0 | 0.00 | 0.00 | 0.00 | 81 | 1023.3 |
| 20260906102131 | 59 | 18 | 0.0 | 0.0 | 0.00 | 0.00 | 0.00 | 81 | 1023.2 |
| 20260906101626 | 59 | 18 | 0.0 | 0.0 | 0.00 | 0.00 | 0.00 | 80 | 1023.5 |
| 20260906101126 | 59 | 18 | 0.0 | 0.0 | 0.00 | 0.00 | 0.00 | 80 | 1023.5 |
| 20260906100622 | 59 | 18 | 0.0 | 0.0 | 0.00 | 0.00 | 0.00 | 80 | 1023.4 |
| 20260906100122 | 59 | 18 | 0.0 | 0.0 | 0.00 | 0.00 | 0.00 | 80 | 1023.4 |
| 20260906095616 | 59 | 18 | 0.0 | 0.0 | 0.00 | 0.00 | 0.00 | 79 | 1023.5 |
| 20260906095112 | 59 | 18 | 0.0 | 0.0 | 0.00 | 0.00 | 0.00 | 79 | 1023.5 |
| 20260906094611 | 59 | 18 | 0.0 | 0.0 | 0.00 | 0.00 | 0.00 | 79 | 1023.2 |
| 20260906094107 | 59 | 18 | 0.0 | 0.0 | 0.00 | 0.00 | 0.00 | 79 | 1023.3 |
| 20260906093603 | 59 | 18 | 0.0 | 0.0 | 0.00 | 0.00 | 0.00 | 79 | 1023.3 |
| 20260906093057 | 60 | 18 | 0.0 | 0.0 | 0.00 | 0.00 | 0.00 | 79 | 1023.3 |
| 20260906092553 | 60 | 18 | 0.0 | 0.0 | 0.00 | 0.00 | 0.00 | 78 | 1023.3 |
| 20260906092047 | 60 | 18 | 0.0 | 0.0 | 0.00 | 0.00 | 0.00 | 79 | 1023.3 |
| 20260906091543 | 60 | 18 | 0.0 | 0.0 | 0.00 | 0.00 | 0.00 | 78 | 1023.4 |
| 20260906091039 | 60 | 18 | 0.0 | 0.0 | 0.00 | 0.00 | 0.00 | 78 | 1023.3 |
| 20260906090539 | 60 | 18 | 0.0 | 0.0 | 0.00 | 0.00 | 0.00 | 78 | 1023.4 |
| 20260906090034 | 60 | 18 | 0.0 | 0.0 | 0.00 | 0.00 | 0.00 | 78 | 1023.3 |
| 20260906085533 | 59 | 18 | 0.0 | 0.0 | 0.00 | 0.00 | 0.00 | 78 | 1023.6 |
| 20260906085033 | 60 | 18 | 0.0 | 0.0 | 0.00 | 0.00 | 0.00 | 78 | 1023.5 |
| 20260906084527 | 60 | 18 | 0.0 | 0.0 | 0.00 | 0.00 | 0.00 | 78 | 1023.3 |
| 20260906084026 | 60 | 18 | 0.0 | 0.0 | 0.00 | 0.00 | 0.00 | 78 | 1023.5 |
| 20260906083522 | 60 | 18 | 0.0 | 0.0 | 0.00 | 0.00 | 0.00 | 78 | 1023.4 |
| 20260906083022 | 60 | 18 | 0.0 | 0.0 | 0.00 | 0.00 | 0.00 | 78 | 1023.3 |
| 20260906082517 | 60 | 18 | 0.0 | 0.0 | 0.00 | 0.00 | 0.00 | 78 | 1023.5 |
| 20260906082013 | 60 | 18 | 0.0 | 0.0 | 0.00 | 0.00 | 0.00 | 77 | 1023.3 |
| 20260906081508 | 60 | 18 | 0.0 | 0.0 | 0.00 | 0.00 | 0.00 | 77 | 1023.3 |
| 20260906081004 | 60 | 18 | 0.0 | 0.0 | 0.00 | 0.00 | 0.00 | 77 | 1023.3 |
| 20260906080500 | 60 | 18 | 0.0 | 0.0 | 0.00 | 0.00 | 0.00 | 77 | 1023.6 |
| 20260906075955 | 60 | 18 | 0.0 | 0.0 | 0.00 | 0.00 | 0.00 | 78 | 1023.6 |
| 20260906075450 | 60 | 18 | 0.0 | 0.0 | 0.00 | 0.00 | 0.00 | 78 | 1023.5 |
| 20260906074945 | 59 | 18 | 0.0 | 0.0 | 0.00 | 0.00 | 0.00 | 78 | 1023.4 |
| 20260906074445 | 59 | 18 | 0.0 | 0.0 | 0.00 | 0.00 | 0.00 | 77 | 1023.5 |
| 20260906073943 | 59 | 18 | 0.0 | 0.0 | 0.00 | 0.00 | 0.00 | 77 | 1023.8 |
| 20260906073438 | 59 | 18 | 0.0 | 0.0 | 0.00 | 0.00 | 0.00 | 77 | 1023.5 |
| 20260906072935 | 59 | 18 | 0.0 | 0.0 | 0.00 | 0.00 | 0.00 | 77 | 1023.4 |
| 20260906072430 | 59 | 18 | 0.0 | 0.0 | 0.00 | 0.00 | 0.00 | 77 | 1023.5 |
| 20260906071926 | 59 | 18 | 0.0 | 0.0 | 0.00 | 0.00 | 0.00 | 77 | 1023.5 |
| 20260906071421 | 59 | 18 | 0.0 | 0.0 | 0.00 | 0.00 | 0.00 | 77 | 1023.4 |
| 20260906070918 | 59 | 18 | 0.0 | 0.0 | 0.00 | 0.00 | 0.00 | 77 | 1023.3 |
| 20260906070413 | 59 | 18 | 0.0 | 0.0 | 0.00 | 0.00 | 0.00 | 77 | 1023.4 |
| 20260906065909 | 59 | 18 | 0.0 | 0.0 | 0.00 | 0.00 | 0.00 | 77 | 1023.4 |
| 20260906065403 | 59 | 18 | 0.0 | 0.0 | 0.00 | 0.00 | 0.00 | 76 | 1023.3 |
| 20260906064859 | 59 | 18 | 0.0 | 0.0 | 0.00 | 0.00 | 0.00 | 76 | 1023.2 |
| 20260906064355 | 60 | 18 | 0.0 | 0.0 | 0.00 | 0.00 | 0.00 | 76 | 1023.2 |
| 20260906063854 | 60 | 18 | 0.0 | 0.0 | 0.00 | 0.00 | 0.00 | 76 | 1023.5 |
| 20260906063350 | 60 | 18 | 0.0 | 0.0 | 0.00 | 0.00 | 0.00 | 75 | 1023.3 |
| 20260906062845 | 60 | 18 | 0.0 | 0.0 | 0.00 | 0.00 | 0.00 | 75 | 1023.4 |
| 20260906062344 | 60 | 18 | 0.0 | 0.0 | 0.00 | 0.00 | 0.00 | 75 | 1023.3 |
| 20260906061839 | 60 | 18 | 0.0 | 0.0 | 0.00 | 0.00 | 0.00 | 75 | 1023.5 |
| 20260906061336 | 60 | 18 | 0.0 | 0.0 | 0.00 | 0.00 | 0.00 | 75 | 1023.4 |
| 20260906060830 | 60 | 18 | 0.0 | 0.0 | 0.00 | 0.00 | 0.00 | 74 | 1023.4 |
| 20260906060329 | 60 | 18 | 0.0 | 0.0 | 0.00 | 0.00 | 0.00 | 74 | 1023.3 |
| 20260906055824 | 61 | 18 | 0.0 | 0.0 | 0.00 | 0.00 | 0.00 | 74 | 1023.3 |
| 20260906055320 | 61 | 18 | 0.0 | 0.0 | 0.00 | 0.00 | 0.00 | 73 | 1023.3 |
| 20260906054815 | 61 | 18 | 0.0 | 0.0 | 0.00 | 0.00 | 0.00 | 73 | 1023.4 |
| 20260906054310 | 61 | 18 | 0.0 | 0.0 | 0.00 | 0.00 | 0.00 | 73 | 1023.4 |
| 20260906053806 | 61 | 18 | 0.0 | 0.0 | 0.00 | 0.00 | 0.00 | 73 | 1023.3 |
| 20260906053301 | 61 | 18 | 0.0 | 0.0 | 0.00 | 0.00 | 0.00 | 73 | 1023.4 |
| 20260906052756 | 61 | 18 | 0.0 | 0.9 | 0.00 | 0.00 | 0.00 | 73 | 1023.1 |
| 20260906052253 | 61 | 18 | 0.0 | 0.0 | 0.00 | 0.00 | 0.00 | 73 | 1023.1 |
| 20260906051750 | 61 | 18 | 0.0 | 0.0 | 0.00 | 0.00 | 0.00 | 73 | 1023.1 |
| 20260906051249 | 61 | 18 | 0.0 | 0.0 | 0.00 | 0.00 | 0.00 | 73 | 1022.8 |
| 20260906050744 | 62 | 18 | 0.0 | 0.0 | 0.00 | 0.00 | 0.00 | 73 | 1022.9 |
| 20260906050239 | 62 | 18 | 0.0 | 0.0 | 0.00 | 0.00 | 0.00 | 73 | 1022.9 |
| 20260906045738 | 62 | 18 | 0.0 | 0.0 | 0.00 | 0.00 | 0.00 | 73 | 1022.6 |
| 20260906045233 | 62 | 18 | 0.0 | 0.0 | 0.00 | 0.00 | 0.00 | 72 | 1022.7 |
| 20260906044729 | 62 | 18 | 0.0 | 0.0 | 0.00 | 0.00 | 0.00 | 72 | 1022.4 |
| 20260906044224 | 62 | 18 | 0.0 | 0.0 | 0.00 | 0.00 | 0.00 | 72 | 1022.6 |
| 20260906043720 | 62 | 18 | 0.0 | 0.0 | 0.00 | 0.00 | 0.00 | 73 | 1022.8 |
| 20260906043216 | 62 | 18 | 0.0 | 0.0 | 0.00 | 0.00 | 0.00 | 72 | 1022.6 |
| 20260906042715 | 62 | 18 | 0.0 | 0.0 | 0.00 | 0.00 | 0.00 | 72 | 1022.7 |
| 20260906042214 | 62 | 18 | 0.0 | 0.9 | 0.00 | 0.00 | 0.00 | 72 | 1022.4 |
| 20260906041710 | 62 | 18 | 0.0 | 0.0 | 0.00 | 0.00 | 0.00 | 72 | 1022.2 |
| 20260906041205 | 62 | 18 | 0.0 | 0.0 | 0.00 | 0.00 | 0.00 | 72 | 1022.3 |
| 20260906040701 | 62 | 18 | 0.0 | 0.0 | 0.00 | 0.00 | 0.00 | 72 | 1022.0 |
| 20260906040156 | 62 | 18 | 0.0 | 0.0 | 0.00 | 0.00 | 0.00 | 72 | 1022.2 |
| 20260906035651 | 62 | 18 | 0.0 | 0.0 | 0.00 | 0.00 | 0.00 | 72 | 1022.4 |
| 20260906035147 | 62 | 18 | 0.0 | 0.0 | 0.00 | 0.00 | 0.00 | 72 | 1022.3 |
| 20260906034642 | 62 | 18 | 0.0 | 0.0 | 0.00 | 0.00 | 0.00 | 71 | 1022.3 |
| 20260906034142 | 62 | 18 | 0.0 | 0.0 | 0.00 | 0.00 | 0.00 | 71 | 1022.4 |
| 20260906033638 | 63 | 18 | 0.0 | 0.0 | 0.00 | 0.00 | 0.00 | 71 | 1022.5 |
| 20260906033132 | 63 | 1 | 0.0 | 0.9 | 0.00 | 0.00 | 0.00 | 71 | 1022.4 |
| 20260906032629 | 64 | 359 | 0.0 | 0.9 | 0.00 | 0.00 | 0.00 | 70 | 1022.1 |
| 20260906032128 | 64 | 359 | 0.0 | 0.0 | 0.00 | 0.00 | 0.00 | 70 | 1022.1 |
| 20260906031624 | 64 | 359 | 0.0 | 0.0 | 0.00 | 0.00 | 0.00 | 70 | 1022.1 |
| 20260906031119 | 64 | 359 | 0.0 | 0.0 | 0.00 | 0.00 | 0.00 | 69 | 1022.1 |
| 20260906030618 | 64 | 359 | 0.0 | 0.0 | 0.00 | 0.00 | 0.00 | 69 | 1021.8 |
| 20260906030114 | 64 | 359 | 0.0 | 0.0 | 0.00 | 0.00 | 0.00 | 69 | 1021.9 |
| 20260906025613 | 64 | 359 | 0.0 | 0.0 | 0.00 | 0.00 | 0.00 | 69 | 1022.1 |
| 20260906025112 | 64 | 359 | 0.0 | 0.0 | 0.00 | 0.00 | 0.00 | 69 | 1021.8 |
| 20260906024607 | 65 | 359 | 0.0 | 0.0 | 0.00 | 0.00 | 0.00 | 68 | 1021.8 |
| 20260906024101 | 65 | 359 | 0.0 | 0.0 | 0.00 | 0.00 | 0.00 | 68 | 1021.7 |
| 20260906023557 | 65 | 358 | 0.0 | 0.0 | 0.00 | 0.00 | 0.00 | 68 | 1021.7 |
| 20260906023052 | 65 | 358 | 0.0 | 0.0 | 0.00 | 0.00 | 0.00 | 68 | 1021.7 |
| 20260906022547 | 65 | 358 | 0.0 | 0.0 | 0.00 | 0.00 | 0.00 | 68 | 1021.7 |
| 20260906022043 | 66 | 358 | 0.0 | 0.0 | 0.00 | 0.00 | 0.00 | 67 | 1021.8 |
| 20260906021538 | 66 | 358 | 0.0 | 0.0 | 0.00 | 0.00 | 0.00 | 67 | 1021.7 |
| 20260906021037 | 66 | 358 | 0.0 | 0.0 | 0.00 | 0.00 | 0.00 | 66 | 1021.8 |
| 20260906020537 | 66 | 358 | 0.0 | 0.0 | 0.00 | 0.00 | 0.00 | 66 | 1021.7 |
| 20260906020036 | 66 | 358 | 0.0 | 0.0 | 0.00 | 0.00 | 0.00 | 65 | 1021.4 |
| 20260906015536 | 67 | 358 | 0.0 | 0.0 | 0.00 | 0.00 | 0.00 | 65 | 1021.4 |
| 20260906015036 | 67 | 358 | 0.0 | 0.0 | 0.00 | 0.00 | 0.00 | 65 | 1021.6 |
| 20260906014531 | 67 | 358 | 0.0 | 0.0 | 0.00 | 0.00 | 0.00 | 64 | 1021.6 |
| 20260906014026 | 68 | 358 | 0.0 | 0.0 | 0.00 | 0.00 | 0.00 | 63 | 1021.7 |
| 20260906013522 | 68 | 358 | 0.0 | 0.0 | 0.00 | 0.00 | 0.00 | 63 | 1021.6 |
| 20260906013017 | 68 | 358 | 0.0 | 0.0 | 0.00 | 0.00 | 0.00 | 62 | 1021.6 |
| 20260906012512 | 68 | 358 | 0.0 | 0.0 | 0.00 | 0.00 | 0.00 | 62 | 1021.7 |
| 20260906012012 | 69 | 358 | 0.0 | 0.0 | 0.00 | 0.00 | 0.00 | 61 | 1021.4 |
| 20260906011508 | 69 | 358 | 0.0 | 0.0 | 0.00 | 0.00 | 0.00 | 61 | 1021.4 |
| 20260906011002 | 69 | 358 | 0.0 | 0.0 | 0.00 | 0.00 | 0.00 | 60 | 1021.3 |
| 20260906010458 | 70 | 358 | 0.0 | 0.0 | 0.00 | 0.00 | 0.00 | 60 | 1021.2 |
| 20260906005954 | 70 | 358 | 0.0 | 0.0 | 0.00 | 0.00 | 0.00 | 60 | 1021.4 |
| 20260906005453 | 70 | 358 | 0.0 | 0.0 | 0.00 | 0.00 | 0.00 | 60 | 1021.3 |
| 20260906004951 | 70 | 358 | 0.0 | 0.0 | 0.00 | 0.00 | 0.00 | 59 | 1021.0 |
| 20260906004446 | 71 | 358 | 0.0 | 0.0 | 0.00 | 0.00 | 0.00 | 60 | 1021.0 |
| 20260906003941 | 71 | 358 | 0.0 | 0.0 | 0.00 | 0.00 | 0.00 | 58 | 1020.9 |
| 20260906003436 | 71 | 358 | 0.0 | 0.0 | 0.00 | 0.00 | 0.00 | 57 | 1021.0 |
| 20260906002931 | 71 | 358 | 0.0 | 0.0 | 0.00 | 0.00 | 0.00 | 58 | 1020.9 |
| 20260906002431 | 72 | 358 | 0.0 | 0.9 | 0.00 | 0.00 | 0.00 | 57 | 1020.9 |
| 20260906001926 | 72 | 358 | 0.0 | 0.9 | 0.00 | 0.00 | 0.00 | 57 | 1021.1 |
| 20260906001422 | 72 | 358 | 0.9 | 1.7 | 0.00 | 0.00 | 0.00 | 56 | 1020.8 |
| 20260906000917 | 72 | 351 | 0.9 | 0.9 | 0.00 | 0.00 | 0.00 | 56 | 1020.9 |
| 20260906000412 | 73 | 351 | 0.0 | 0.9 | 0.00 | 0.00 | 0.00 | 56 | 1020.8 |
| 20260905235907 | 73 | 350 | 0.0 | 0.9 | 0.00 | 0.00 | 0.00 | 56 | 1021.0 |
| 20260905235401 | 73 | 350 | 0.9 | 1.7 | 0.00 | 0.00 | 0.00 | 56 | 1021.0 |
| 20260905234856 | 73 | 350 | 0.0 | 0.0 | 0.00 | 0.00 | 0.00 | 56 | 1021.0 |
| 20260905234351 | 73 | 349 | 0.0 | 0.0 | 0.00 | 0.00 | 0.00 | 56 | 1020.9 |
| 20260905233846 | 73 | 349 | 0.0 | 0.0 | 0.00 | 0.00 | 0.00 | 56 | 1020.9 |
| 20260905233341 | 73 | 349 | 0.0 | 0.0 | 0.00 | 0.00 | 0.00 | 55 | 1021.0 |
| 20260905232841 | 74 | 349 | 0.0 | 0.9 | 0.00 | 0.00 | 0.00 | 55 | 1020.8 |
| 20260905232337 | 74 | 349 | 0.0 | 0.0 | 0.00 | 0.00 | 0.00 | 53 | 1020.9 |
| 20260905231832 | 74 | 349 | 0.0 | 0.0 | 0.00 | 0.00 | 0.00 | 53 | 1020.9 |
| 20260905231333 | 75 | 349 | 0.0 | 0.9 | 0.00 | 0.00 | 0.00 | 52 | 1021.1 |
| 20260905230830 | 75 | 349 | 0.0 | 0.9 | 0.00 | 0.00 | 0.00 | 51 | 1020.9 |
| 20260905230327 | 76 | 349 | 0.0 | 0.9 | 0.00 | 0.00 | 0.00 | 49 | 1020.9 |
| 20260905225826 | 76 | 349 | 0.0 | 0.0 | 0.00 | 0.00 | 0.00 | 49 | 1021.0 |
| 20260905225322 | 76 | 347 | 0.0 | 0.0 | 0.00 | 0.00 | 0.00 | 50 | 1021.0 |
| 20260905224822 | 77 | 309 | 0.9 | 0.9 | 0.00 | 0.00 | 0.00 | 48 | 1020.7 |
| 20260905224318 | 77 | 240 | 0.0 | 0.9 | 0.00 | 0.00 | 0.00 | 49 | 1020.7 |
| 20260905223812 | 77 | 240 | 0.0 | 0.0 | 0.00 | 0.00 | 0.00 | 49 | 1020.8 |
| 20260905223310 | 77 | 240 | 0.0 | 0.9 | 0.00 | 0.00 | 0.00 | 46 | 1020.9 |
| 20260905222805 | 77 | 225 | 0.9 | 0.9 | 0.00 | 0.00 | 0.00 | 45 | 1020.7 |
| 20260905222306 | 77 | 357 | 0.0 | 0.0 | 0.00 | 0.00 | 0.00 | 48 | 1020.8 |
| 20260905221800 | 77 | 357 | 0.0 | 0.9 | 0.00 | 0.00 | 0.00 | 49 | 1020.8 |
| 20260905221256 | 77 | 357 | 0.0 | 0.0 | 0.00 | 0.00 | 0.00 | 47 | 1020.9 |
| 20260905220752 | 78 | 353 | 0.0 | 0.9 | 0.00 | 0.00 | 0.00 | 46 | 1020.7 |
| 20260905220248 | 78 | 352 | 0.0 | 0.0 | 0.00 | 0.00 | 0.00 | 45 | 1020.8 |
| 20260905215747 | 78 | 341 | 1.7 | 1.7 | 0.00 | 0.00 | 0.00 | 45 | 1020.5 |
| 20260905215243 | 78 | 240 | 0.0 | 0.9 | 0.00 | 0.00 | 0.00 | 45 | 1020.9 |
| 20260905214739 | 78 | 164 | 0.0 | 0.9 | 0.00 | 0.00 | 0.00 | 45 | 1020.8 |
| 20260905214235 | 78 | 273 | 0.9 | 0.9 | 0.00 | 0.00 | 0.00 | 45 | 1020.7 |
| 20260905213730 | 78 | 200 | 0.0 | 0.0 | 0.00 | 0.00 | 0.00 | 46 | 1020.8 |
| 20260905213226 | 78 | 239 | 0.9 | 0.9 | 0.00 | 0.00 | 0.00 | 44 | 1021.0 |
| 20260905212721 | 78 | 234 | 0.0 | 0.0 | 0.00 | 0.00 | 0.00 | 45 | 1021.0 |
| 20260905212220 | 78 | 187 | 0.0 | 0.9 | 0.00 | 0.00 | 0.00 | 46 | 1020.9 |
| 20260905211714 | 79 | 191 | 0.0 | 0.0 | 0.00 | 0.00 | 0.00 | 46 | 1021.1 |
| 20260905211209 | 79 | 210 | 0.0 | 0.0 | 0.00 | 0.00 | 0.00 | 46 | 1021.1 |
| 20260905210706 | 79 | 277 | 0.9 | 0.9 | 0.00 | 0.00 | 0.00 | 45 | 1020.9 |
| 20260905210206 | 79 | 166 | 0.0 | 0.9 | 0.00 | 0.00 | 0.00 | 45 | 1021.3 |
| 20260905205704 | 79 | 165 | 0.0 | 0.0 | 0.00 | 0.00 | 0.00 | 47 | 1021.2 |
| 20260905205159 | 79 | 199 | 0.9 | 0.9 | 0.00 | 0.00 | 0.00 | 45 | 1021.4 |
| 20260905204659 | 79 | 244 | 0.0 | 0.9 | 0.00 | 0.00 | 0.00 | 46 | 1021.2 |
| 20260905204154 | 79 | 306 | 0.0 | 0.9 | 0.00 | 0.00 | 0.00 | 44 | 1021.1 |
| 20260905203649 | 78 | 264 | 0.0 | 0.0 | 0.00 | 0.00 | 0.00 | 45 | 1021.0 |
| 20260905203144 | 79 | 210 | 0.9 | 1.7 | 0.00 | 0.00 | 0.00 | 45 | 1021.0 |
| 20260905202639 | 79 | 197 | 1.7 | 1.7 | 0.00 | 0.00 | 0.00 | 45 | 1020.9 |
| 20260905202135 | 79 | 195 | 0.0 | 0.0 | 0.00 | 0.00 | 0.00 | 44 | 1021.0 |
| 20260905201630 | 79 | 238 | 1.7 | 1.7 | 0.00 | 0.00 | 0.00 | 45 | 1021.1 |
| 20260905201130 | 80 | 275 | 1.7 | 1.7 | 0.00 | 0.00 | 0.00 | 43 | 1021.1 |
| 20260905200626 | 79 | 240 | 0.0 | 0.9 | 0.00 | 0.00 | 0.00 | 44 | 1020.8 |
| 20260905200121 | 77 | 218 | 0.9 | 0.9 | 0.00 | 0.00 | 0.00 | 46 | 1021.0 |
| 20260905195619 | 78 | 167 | 0.0 | 0.0 | 0.00 | 0.00 | 0.00 | 48 | 1021.2 |
| 20260905195115 | 78 | 167 | 0.0 | 0.0 | 0.00 | 0.00 | 0.00 | 47 | 1021.2 |
| 20260905194615 | 79 | 170 | 0.0 | 0.9 | 0.00 | 0.00 | 0.00 | 45 | 1021.2 |
| 20260905194114 | 81 | 171 | 0.9 | 1.7 | 0.00 | 0.00 | 0.00 | 44 | 1021.0 |
| 20260905193609 | 82 | 208 | 0.9 | 0.9 | 0.00 | 0.00 | 0.00 | 41 | 1021.0 |
| 20260905193104 | 81 | 283 | 0.0 | 0.9 | 0.00 | 0.00 | 0.00 | 43 | 1021.1 |
| 20260905192600 | 82 | 322 | 0.9 | 0.9 | 0.00 | 0.00 | 0.00 | 41 | 1021.4 |
| 20260905192056 | 80 | 244 | 0.0 | 0.9 | 0.00 | 0.00 | 0.00 | 42 | 1021.3 |
| 20260905191554 | 80 | 209 | 1.7 | 1.7 | 0.00 | 0.00 | 0.00 | 43 | 1021.3 |
| 20260905191054 | 80 | 234 | 0.9 | 1.7 | 0.00 | 0.00 | 0.00 | 43 | 1021.4 |
| 20260905190552 | 80 | 262 | 1.7 | 1.7 | 0.00 | 0.00 | 0.00 | 43 | 1021.7 |
| 20260905190051 | 80 | 270 | 0.9 | 1.7 | 0.00 | 0.00 | 0.00 | 43 | 1021.6 |
| 20260905185550 | 80 | 275 | 0.9 | 1.7 | 0.00 | 0.00 | 0.00 | 44 | 1021.6 |
| 20260905185050 | 80 | 9 | 1.7 | 1.7 | 0.00 | 0.00 | 0.00 | 43 | 1021.6 |
| 20260905184544 | 80 | 7 | 2.6 | 2.6 | 0.00 | 0.00 | 0.00 | 44 | 1021.4 |
| 20260905184044 | 79 | 316 | 0.9 | 0.9 | 0.00 | 0.00 | 0.00 | 44 | 1021.3 |
| 20260905183543 | 80 | 164 | 1.7 | 1.7 | 0.00 | 0.00 | 0.00 | 43 | 1021.4 |
| 20260905183033 | 78 | 201 | 0.9 | 0.9 | 0.00 | 0.00 | 0.00 | 45 | 1021.4 |
| 20260905182533 | 79 | 279 | 0.9 | 0.9 | 0.00 | 0.00 | 0.00 | 45 | 1021.7 |
| 20260905182033 | 80 | 237 | 0.9 | 1.7 | 0.00 | 0.00 | 0.00 | 44 | 1021.7 |
| 20260905181527 | 81 | 315 | 0.0 | 0.0 | 0.00 | 0.00 | 0.00 | 45 | 1021.7 |
| 20260905181026 | 81 | 287 | 1.7 | 1.7 | 0.00 | 0.00 | 0.00 | 40 | 1021.7 |
| 20260905180521 | 79 | 266 | 0.9 | 0.9 | 0.00 | 0.00 | 0.00 | 44 | 1021.9 |
| 20260905180017 | 79 | 278 | 0.0 | 0.9 | 0.00 | 0.00 | 0.00 | 44 | 1021.8 |
| 20260905175516 | 79 | 343 | 1.7 | 1.7 | 0.00 | 0.00 | 0.00 | 45 | 1021.9 |
| 20260905175012 | 78 | 233 | 1.7 | 1.7 | 0.00 | 0.00 | 0.00 | 45 | 1022.0 |
| 20260905174507 | 78 | 339 | 1.7 | 1.7 | 0.00 | 0.00 | 0.00 | 46 | 1022.0 |
| 20260905174003 | 77 | 229 | 1.7 | 1.7 | 0.00 | 0.00 | 0.00 | 46 | 1021.8 |
| 20260905173459 | 76 | 256 | 0.0 | 0.0 | 0.00 | 0.00 | 0.00 | 48 | 1022.0 |
| 20260905172954 | 76 | 226 | 1.7 | 1.7 | 0.00 | 0.00 | 0.00 | 49 | 1022.0 |
| 20260905172452 | 76 | 219 | 2.6 | 2.6 | 0.00 | 0.00 | 0.00 | 48 | 1021.7 |
| 20260905171948 | 75 | 230 | 0.9 | 1.7 | 0.00 | 0.00 | 0.00 | 48 | 1022.1 |
| 20260905171444 | 76 | 221 | 2.6 | 2.6 | 0.00 | 0.00 | 0.00 | 47 | 1021.8 |
| 20260905170940 | 75 | 255 | 1.7 | 2.6 | 0.00 | 0.00 | 0.00 | 47 | 1021.8 |
| 20260905170437 | 74 | 243 | 0.9 | 1.7 | 0.00 | 0.00 | 0.00 | 51 | 1021.9 |
| 20260905165936 | 75 | 226 | 0.9 | 1.7 | 0.00 | 0.00 | 0.00 | 51 | 1022.1 |
| 20260905165431 | 74 | 195 | 0.9 | 0.9 | 0.00 | 0.00 | 0.00 | 49 | 1022.0 |
| 20260905164926 | 74 | 226 | 1.7 | 1.7 | 0.00 | 0.00 | 0.00 | 50 | 1022.4 |
| 20260905164425 | 74 | 255 | 3.5 | 4.3 | 0.00 | 0.00 | 0.00 | 48 | 1022.5 |
| 20260905163921 | 74 | 226 | 1.7 | 1.7 | 0.00 | 0.00 | 0.00 | 50 | 1022.3 |
| 20260905163417 | 73 | 226 | 0.9 | 0.9 | 0.00 | 0.00 | 0.00 | 52 | 1022.2 |
| 20260905162913 | 74 | 241 | 1.7 | 1.7 | 0.00 | 0.00 | 0.00 | 52 | 1022.4 |
| 20260905162408 | 75 | 209 | 1.7 | 1.7 | 0.00 | 0.00 | 0.00 | 51 | 1022.3 |
| 20260905161903 | 75 | 250 | 0.9 | 0.9 | 0.00 | 0.00 | 0.00 | 50 | 1022.3 |